This is the latest recevied weather packets stored in our database for station/object DG0PX-12. If no packets are shown the sender has not sent any weather packets the latest 10 day(s).
| Time | Temp. | Humidity | Pressure | Rain* | Wind** | Luminosity | Snow |
|---|---|---|---|---|---|---|---|
| 1777851915 | 18.33° C | 42% | 946.9 hPa | - | - | - | - |
| 1777851015 | 17.22° C | 46% | 946.8 hPa | - | - | - | - |
| 1777850115 | 16.11° C | 50% | 946.5 hPa | - | - | - | - |
| 1777849215 | 17.22° C | 47% | 946.3 hPa | - | - | - | - |
| 1777848315 | 17.22° C | 46% | 946.1 hPa | - | - | - | - |
| 1777847415 | 17.22° C | 47% | 946 hPa | - | - | - | - |
| 1777846514 | 17.78° C | 47% | 946 hPa | - | - | - | - |
| 1777845614 | 18.89° C | 43% | 945.8 hPa | - | - | - | - |
| 1777844714 | 18.33° C | 44% | 945.6 hPa | - | - | - | - |
| 1777843814 | 19.44° C | 41% | 945.6 hPa | - | - | - | - |
| 1777842914 | 18.89° C | 42% | 945.4 hPa | - | - | - | - |
| 1777842014 | 18.89° C | 45% | 945.3 hPa | - | - | - | - |
| 1777841113 | 17.78° C | 49% | 945.1 hPa | - | - | - | - |
| 1777840213 | 17.78° C | 49% | 945 hPa | - | - | - | - |
| 1777839313 | 17.22° C | 52% | 945 hPa | - | - | - | - |
| 1777838413 | 17.22° C | 51% | 944.9 hPa | - | - | - | - |
| 1777837513 | 17.78° C | 50% | 944.6 hPa | - | - | - | - |
| 1777836613 | 18.33° C | 51% | 944.5 hPa | - | - | - | - |
| 1777835713 | 17.78° C | 52% | 944.4 hPa | - | - | - | - |
| 1777834813 | 21.11° C | 43% | 944.3 hPa | - | - | - | - |
| 1777833912 | 20° C | 47% | 944.3 hPa | - | - | - | - |
| 1777833012 | 21.11° C | 42% | 944.2 hPa | - | - | - | - |
| 1777832112 | 22.22° C | 36% | 944 hPa | - | - | - | - |
| 1777831212 | 23.89° C | 36% | 943.9 hPa | - | - | - | - |
| 1777830312 | 25° C | 28% | 944 hPa | - | - | - | - |
* Rain since midnight (hover to see other rain measurements)
** Current wind speed in m/s (hover to see current wind gust speed)